TimeCDT,TemperatureF,Dew PointF,Humidity,Sea Level PressureIn,VisibilityMPH,Wind Direction,Wind SpeedMPH,Gust SpeedMPH,PrecipitationIn,Events,Conditions,WindDirDegrees,DateUTC
12:35 AM,46.4,39.2,76,30.23,10.0,NE,4.6,-,N/A,,Clear,40,2012-09-27 05:35:00
12:55 AM,48.2,39.2,71,30.23,10.0,NE,5.8,-,N/A,,Clear,50,2012-09-27 05:55:00
1:15 AM,46.4,39.2,76,30.24,10.0,ENE,5.8,-,N/A,,Clear,60,2012-09-27 06:15:00
1:35 AM,46.4,39.2,76,30.24,10.0,ENE,5.8,-,N/A,,Clear,60,2012-09-27 06:35:00
1:55 AM,48.2,39.2,71,30.25,10.0,ENE,5.8,-,N/A,,Clear,60,2012-09-27 06:55:00
2:15 AM,46.4,39.2,76,30.25,10.0,ENE,4.6,-,N/A,,Clear,70,2012-09-27 07:15:00
2:35 AM,46.4,39.2,76,30.26,10.0,ENE,4.6,-,N/A,,Clear,60,2012-09-27 07:35:00
2:55 AM,46.4,39.2,76,30.25,10.0,ENE,4.6,-,N/A,,Clear,60,2012-09-27 07:55:00
3:15 AM,46.4,39.2,76,30.25,10.0,ENE,4.6,-,N/A,,Clear,60,2012-09-27 08:15:00
3:35 AM,46.4,39.2,76,30.26,10.0,ENE,5.8,-,N/A,,Clear,60,2012-09-27 08:35:00
3:55 AM,46.4,39.2,76,30.26,10.0,NE,6.9,-,N/A,,Clear,50,2012-09-27 08:55:00
4:15 AM,46.4,39.2,76,30.26,10.0,NE,5.8,-,N/A,,Clear,50,2012-09-27 09:15:00
4:35 AM,46.4,39.2,76,30.26,10.0,ENE,5.8,-,N/A,,Clear,60,2012-09-27 09:35:00
4:55 AM,46.4,37.4,71,30.26,10.0,ENE,5.8,-,N/A,,Clear,60,2012-09-27 09:55:00
5:15 AM,46.4,37.4,71,30.27,10.0,NE,8.1,-,N/A,,Clear,50,2012-09-27 10:15:00
5:35 AM,46.4,37.4,71,30.27,10.0,NE,5.8,-,N/A,,Clear,50,2012-09-27 10:35:00
5:55 AM,46.4,37.4,71,30.27,10.0,NE,5.8,-,N/A,,Clear,50,2012-09-27 10:55:00
6:15 AM,46.4,37.4,71,30.28,10.0,NE,6.9,-,N/A,,Clear,40,2012-09-27 11:15:00
6:35 AM,46.4,37.4,71,30.28,10.0,ENE,5.8,-,N/A,,Clear,60,2012-09-27 11:35:00
6:55 AM,46.4,37.4,71,30.29,10.0,ENE,5.8,-,N/A,,Clear,60,2012-09-27 11:55:00
7:15 AM,46.4,37.4,71,30.29,10.0,NE,4.6,-,N/A,,Clear,50,2012-09-27 12:15:00
7:35 AM,46.4,39.2,76,30.28,10.0,NE,9.2,-,N/A,,Clear,40,2012-09-27 12:35:00
7:55 AM,48.2,39.2,71,30.29,10.0,NE,6.9,-,N/A,,Clear,50,2012-09-27 12:55:00
8:15 AM,50.0,39.2,66,30.30,10.0,NE,9.2,-,N/A,,Clear,50,2012-09-27 13:15:00
8:35 AM,51.8,41.0,67,30.31,10.0,NE,8.1,-,N/A,,Clear,50,2012-09-27 13:35:00
8:55 AM,51.8,41.0,67,30.31,10.0,NNE,8.1,-,N/A,,Clear,30,2012-09-27 13:55:00
9:15 AM,53.6,41.0,62,30.31,10.0,NNE,6.9,-,N/A,,Clear,30,2012-09-27 14:15:00
9:35 AM,53.6,41.0,62,30.32,10.0,NE,9.2,-,N/A,,Clear,40,2012-09-27 14:35:00
9:55 AM,55.4,39.2,54,30.32,10.0,NE,6.9,-,N/A,,Clear,40,2012-09-27 14:55:00
10:15 AM,55.4,39.2,54,30.32,10.0,NE,8.1,-,N/A,,Clear,40,2012-09-27 15:15:00
10:35 AM,55.4,37.4,51,30.31,10.0,NE,8.1,-,N/A,,Clear,50,2012-09-27 15:35:00
10:55 AM,55.4,37.4,51,30.31,10.0,NNE,4.6,-,N/A,,Clear,30,2012-09-27 15:55:00
11:15 AM,57.2,37.4,48,30.31,10.0,NNE,8.1,-,N/A,,Clear,20,2012-09-27 16:15:00
11:35 AM,57.2,37.4,48,30.30,10.0,NNW,5.8,-,N/A,,Partly Cloudy,340,2012-09-27 16:35:00
11:55 AM,57.2,37.4,48,30.30,10.0,ENE,5.8,-,N/A,,Partly Cloudy,70,2012-09-27 16:55:00
12:15 PM,55.4,39.2,54,30.29,10.0,North,6.9,-,N/A,,Partly Cloudy,10,2012-09-27 17:15:00
12:35 PM,57.2,39.2,51,30.28,10.0,NNW,9.2,-,N/A,,Clear,330,2012-09-27 17:35:00
1:15 PM,57.2,39.2,51,30.27,10.0,NNW,11.5,-,N/A,,Clear,340,2012-09-27 18:15:00
1:35 PM,57.2,39.2,51,30.26,10.0,North,11.5,-,N/A,,Clear,350,2012-09-27 18:35:00
1:55 PM,57.2,39.2,51,30.26,10.0,North,8.1,-,N/A,,Clear,350,2012-09-27 18:55:00
2:15 PM,57.2,39.2,51,30.25,10.0,NNW,9.2,-,N/A,,Clear,340,2012-09-27 19:15:00
2:35 PM,57.2,39.2,51,30.24,10.0,NNW,9.2,-,N/A,,Clear,340,2012-09-27 19:35:00
2:55 PM,57.2,39.2,51,30.23,10.0,North,8.1,-,N/A,,Clear,350,2012-09-27 19:55:00
3:15 PM,57.2,41.0,55,30.23,10.0,North,6.9,-,N/A,,Clear,360,2012-09-27 20:15:00
3:35 PM,57.2,39.2,51,30.23,10.0,Calm,Calm,-,N/A,,Clear,0,2012-09-27 20:35:00
3:55 PM,59.0,35.6,42,30.23,10.0,NNE,3.5,-,N/A,,Clear,30,2012-09-27 20:55:00
4:15 PM,59.0,35.6,42,30.23,10.0,ESE,4.6,-,N/A,,Clear,110,2012-09-27 21:15:00
4:35 PM,57.2,41.0,55,30.24,10.0,East,6.9,-,N/A,,Clear,90,2012-09-27 21:35:00
4:55 PM,55.4,42.8,63,30.24,10.0,SE,8.1,-,N/A,,Clear,130,2012-09-27 21:55:00
5:35 PM,55.4,41.0,58,30.23,10.0,ESE,6.9,-,N/A,,Clear,110,2012-09-27 22:35:00
5:55 PM,53.6,41.0,62,30.23,10.0,ESE,5.8,-,N/A,,Clear,120,2012-09-27 22:55:00
6:15 PM,53.6,41.0,62,30.22,10.0,ESE,5.8,-,N/A,,Clear,110,2012-09-27 23:15:00
6:35 PM,51.8,39.2,62,30.22,10.0,ESE,5.8,-,N/A,,Clear,110,2012-09-27 23:35:00
6:55 PM,51.8,41.0,67,30.22,10.0,East,4.6,-,N/A,,Clear,100,2012-09-27 23:55:00
7:15 PM,50.0,41.0,71,30.22,10.0,East,3.5,-,N/A,,Clear,100,2012-09-28 00:15:00
7:35 PM,48.2,39.2,71,30.23,10.0,Calm,Calm,-,N/A,,Clear,0,2012-09-28 00:35:00
7:55 PM,46.4,39.2,76,30.22,10.0,East,3.5,-,N/A,,Clear,100,2012-09-28 00:55:00
8:35 PM,44.6,39.2,81,30.22,10.0,SSE,3.5,-,N/A,,Clear,160,2012-09-28 01:35:00
8:55 PM,44.6,39.2,81,30.22,10.0,Calm,Calm,-,N/A,,Clear,0,2012-09-28 01:55:00
9:15 PM,44.6,39.2,81,30.22,10.0,South,3.5,-,N/A,,Clear,190,2012-09-28 02:15:00
9:35 PM,42.8,39.2,87,30.21,10.0,South,3.5,-,N/A,,Clear,190,2012-09-28 02:35:00
9:55 PM,44.6,39.2,81,30.21,10.0,South,3.5,-,N/A,,Clear,190,2012-09-28 02:55:00
10:15 PM,42.8,39.2,87,30.21,10.0,South,3.5,-,N/A,,Clear,190,2012-09-28 03:15:00
10:35 PM,44.6,39.2,81,30.21,10.0,Calm,Calm,-,N/A,,Clear,0,2012-09-28 03:35:00
10:55 PM,44.6,39.2,81,30.20,10.0,Calm,Calm,-,N/A,,Clear,0,2012-09-28 03:55:00
11:15 PM,42.8,39.2,87,30.20,10.0,Calm,Calm,-,N/A,,Clear,0,2012-09-28 04:15:00
11:35 PM,42.8,39.2,87,30.20,10.0,Calm,Calm,-,N/A,,Clear,0,2012-09-28 04:35:00
11:55 PM,42.8,39.2,87,30.20,10.0,Calm,Calm,-,N/A,,Clear,0,2012-09-28 04:55:00